Time;durP1;ratioP1;P1;durP2;ratioP2;P2;SDS_P1;SDS_P2;PMS_P1;PMS_P2;Temp;Humidity;BMP_temperature;BMP_pressure;BME280_temperature;BME280_humidity;BME280_pressure;Samples;Min_cycle;Max_cycle;Signal;HPM_P1;HPM_P2
2022/05/28 00:00:12;;;;;;;5.30;2.07;;;;;;;11.49;57.30;99231.75;5131892;27;41604;-75
2022/05/28 00:02:40;;;;;;;2.30;1.07;;;;;;;11.45;57.19;99227.56;5131711;27;43363;-76
2022/05/28 00:05:10;;;;;;;2.43;1.30;;;;;;;11.41;57.85;99226.03;5149559;27;40833;-76
2022/05/28 00:07:37;;;;;;;2.50;1.10;;;;;;;11.38;57.86;99226.22;5132829;27;41760;-76
2022/05/28 00:10:06;;;;;;;3.57;1.20;;;;;;;11.34;57.71;99224.72;5132005;27;43710;-74
2022/05/28 00:12:34;;;;;;;3.40;1.20;;;;;;;11.31;58.10;99230.19;5131167;27;42917;-74
2022/05/28 00:15:01;;;;;;;4.00;1.37;;;;;;;11.27;58.14;99226.00;5131933;27;39009;-77
2022/05/28 00:17:29;;;;;;;3.17;1.20;;;;;;;11.24;58.21;99220.91;5132772;27;41823;-75
2022/05/28 00:19:56;;;;;;;3.37;1.30;;;;;;;11.23;58.95;99219.19;5114879;27;41390;-75
2022/05/28 00:22:25;;;;;;;2.03;1.20;;;;;;;11.19;58.85;99221.16;5131764;27;42930;-74
2022/05/28 00:24:53;;;;;;;3.97;1.20;;;;;;;11.15;59.27;99220.47;5132904;27;39985;-75
2022/05/28 00:27:20;;;;;;;4.00;1.37;;;;;;;11.13;59.52;99219.72;5131430;27;41291;-74
2022/05/28 00:29:48;;;;;;;3.60;1.37;;;;;;;11.10;59.49;99221.72;5133134;27;42866;-77
2022/05/28 00:32:16;;;;;;;1.73;1.20;;;;;;;11.07;59.23;99217.44;5131240;27;41351;-76
2022/05/28 00:34:43;;;;;;;4.07;1.20;;;;;;;11.04;59.58;99219.41;5131789;27;38598;-76
2022/05/28 00:37:11;;;;;;;5.70;1.30;;;;;;;11.00;59.61;99215.25;5132553;27;42757;-77
2022/05/28 00:39:40;;;;;;;6.37;1.47;;;;;;;11.00;59.77;99208.13;5132940;27;42610;-76
2022/05/28 00:42:08;;;;;;;1.67;0.80;;;;;;;10.96;59.85;99211.91;5132478;27;43132;-78
2022/05/28 00:44:36;;;;;;;2.00;1.53;;;;;;;10.85;59.82;99184.34;5131663;27;40001;-76
2022/05/28 00:47:05;;;;;;;2.03;1.20;;;;;;;10.86;60.15;99197.50;5131247;27;40277;-78
2022/05/28 00:49:33;;;;;;;3.27;1.40;;;;;;;10.92;59.72;99201.56;5132678;27;43650;-75
2022/05/28 00:52:04;;;;;;;3.70;1.23;;;;;;;10.91;60.17;99210.47;5132337;27;42357;-77
2022/05/28 00:54:34;;;;;;;4.93;1.43;;;;;;;10.88;60.07;99215.97;5131442;27;40059;-75
2022/05/28 00:57:04;;;;;;;3.23;1.40;;;;;;;10.88;60.07;99210.66;5130597;27;41723;-73
2022/05/28 00:59:32;;;;;;;2.53;1.10;;;;;;;10.85;60.21;99206.41;5133250;27;42781;-75
2022/05/28 01:02:05;;;;;;;2.10;1.03;;;;;;;10.83;60.14;99210.06;5150580;27;43263;-77
2022/05/28 01:04:38;;;;;;;2.97;1.40;;;;;;;10.83;60.26;99213.56;5152819;27;39975;-76
2022/05/28 01:07:16;;;;;;;4.10;1.07;;;;;;;10.79;60.67;99206.72;5148637;27;41574;-76
2022/05/28 01:09:52;;;;;;;1.97;0.90;;;;;;;10.78;60.36;99210.31;5138020;27;41296;-75
2022/05/28 01:12:30;;;;;;;6.33;1.43;;;;;;;10.77;60.77;99203.31;5153260;27;43000;-75
2022/05/28 01:15:05;;;;;;;3.20;1.27;;;;;;;10.77;60.67;99205.97;5153920;27;39990;-74
2022/05/28 01:17:38;;;;;;;4.20;1.50;;;;;;;10.66;60.56;99185.41;5153209;27;41799;-75
2022/05/28 01:20:11;;;;;;;3.27;1.17;;;;;;;10.73;61.04;99196.50;5137835;27;42868;-76
2022/05/28 01:22:53;;;;;;;2.90;1.30;;;;;;;10.72;60.68;99195.66;5155311;27;42309;-76
2022/05/28 01:25:31;;;;;;;2.10;1.03;;;;;;;10.71;60.71;99195.72;5150707;27;40804;-74
2022/05/28 01:28:04;;;;;;;6.10;1.53;;;;;;;10.71;60.58;99214.28;5137930;27;41567;-75
2022/05/28 01:30:32;;;;;;;5.17;1.63;;;;;;;10.68;60.65;99198.56;5137626;27;41746;-76
2022/05/28 01:33:02;;;;;;;1.90;1.10;;;;;;;10.66;60.49;99195.13;5155156;27;42290;-75
2022/05/28 01:35:31;;;;;;;3.93;1.10;;;;;;;10.65;60.40;99201.38;5153852;27;39894;-75
2022/05/28 01:38:01;;;;;;;3.90;1.40;;;;;;;10.64;60.29;99202.31;5154984;27;41576;-75
2022/05/28 01:40:29;;;;;;;3.93;1.30;;;;;;;10.62;60.28;99209.50;5154561;27;42497;-74
2022/05/28 01:43:03;;;;;;;2.53;1.23;;;;;;;10.60;60.38;99204.31;5155829;27;43230;-75
2022/05/28 01:45:33;;;;;;;4.50;1.40;;;;;;;10.58;60.01;99198.22;5152759;27;40015;-75
2022/05/28 01:48:05;;;;;;;2.10;1.03;;;;;;;10.55;60.39;99194.91;5152262;27;41545;-76
2022/05/28 01:50:37;;;;;;;3.77;1.17;;;;;;;10.42;60.74;99177.06;5154916;27;41948;-75
2022/05/28 01:53:08;;;;;;;2.57;1.27;;;;;;;10.50;60.92;99196.97;5156087;27;41599;-75
2022/05/28 01:55:42;;;;;;;1.87;1.30;;;;;;;10.48;60.57;99201.50;5146369;27;40896;-75
2022/05/28 01:58:11;;;;;;;1.47;1.10;;;;;;;10.44;60.72;99199.00;5154758;27;41667;-77
2022/05/28 02:00:39;;;;;;;2.30;1.07;;;;;;;10.42;61.11;99203.53;5155195;27;43593;-73
2022/05/28 02:03:07;;;;;;;3.53;1.40;;;;;;;10.42;61.01;99197.38;5151763;27;40740;-75
2022/05/28 02:05:34;;;;;;;1.60;1.13;;;;;;;10.41;60.97;99201.81;5152550;27;38856;-75
2022/05/28 02:08:02;;;;;;;3.10;1.30;;;;;;;10.38;60.96;99196.72;5153861;27;41760;-77
2022/05/28 02:10:31;;;;;;;6.47;1.07;;;;;;;10.36;61.15;99206.53;5154792;27;42626;-74
2022/05/28 02:13:07;;;;;;;3.53;1.10;;;;;;;10.35;61.12;99191.59;5153141;27;43237;-79
2022/05/28 02:15:44;;;;;;;2.17;0.97;;;;;;;10.34;61.25;99196.97;5115659;27;39395;-75
2022/05/28 02:18:23;;;;;;;4.53;1.13;;;;;;;10.32;61.25;99189.13;5136244;27;42671;-76
2022/05/28 02:20:59;;;;;;;3.60;1.20;;;;;;;10.30;61.22;99193.63;5150862;27;42846;-76
2022/05/28 02:23:33;;;;;;;4.03;1.90;;;;;;;10.28;61.35;99184.91;5154646;27;42362;-75
2022/05/28 02:26:06;;;;;;;2.77;1.43;;;;;;;10.26;61.28;99186.78;5137533;27;38865;-77
2022/05/28 02:28:36;;;;;;;1.50;1.13;;;;;;;10.24;61.28;99182.56;5149574;27;40417;-78
2022/05/28 02:31:14;;;;;;;5.93;1.23;;;;;;;10.22;61.52;99190.56;5153938;27;43672;-75
2022/05/28 02:33:43;;;;;;;3.03;1.13;;;;;;;10.21;61.10;99193.31;5153390;27;41167;-77
2022/05/28 02:36:12;;;;;;;3.57;1.00;;;;;;;10.19;61.39;99185.44;5154144;27;39888;-77
2022/05/28 02:38:40;;;;;;;3.47;1.03;;;;;;;10.18;61.58;99186.38;5149598;27;41757;-77
2022/05/28 02:41:08;;;;;;;3.90;1.50;;;;;;;10.11;61.80;99184.13;5154164;27;43695;-74
2022/05/28 02:43:36;;;;;;;2.43;1.03;;;;;;;10.14;61.90;99176.84;5152881;27;43106;-76
2022/05/28 02:46:05;;;;;;;3.53;1.30;;;;;;;10.10;61.77;99175.34;5148766;27;40093;-75
2022/05/28 02:48:35;;;;;;;2.30;1.40;;;;;;;10.09;61.64;99179.78;5152604;27;41767;-77
2022/05/28 02:51:04;;;;;;;3.00;1.30;;;;;;;10.07;61.81;99178.16;5154854;27;43721;-74
2022/05/28 02:53:32;;;;;;;3.07;1.10;;;;;;;10.03;61.91;99173.94;5153485;27;42371;-77
2022/05/28 02:56:00;;;;;;;5.60;1.20;;;;;;;10.02;61.74;99172.25;5153259;27;39275;-78
2022/05/28 02:58:29;;;;;;;2.50;1.10;;;;;;;10.00;62.06;99168.84;5152765;27;42731;-78
2022/05/28 03:00:57;;;;;;;3.27;1.50;;;;;;;9.86;62.02;99151.09;5154954;27;42849;-75
2022/05/28 03:03:25;;;;;;;3.73;1.10;;;;;;;9.93;62.17;99167.47;5154509;27;42466;-74
2022/05/28 03:05:55;;;;;;;2.00;1.50;;;;;;;9.93;62.48;99178.06;5153911;27;39896;-75
2022/05/28 03:08:22;;;;;;;3.20;1.27;;;;;;;9.92;62.05;99181.63;5154588;27;42437;-75
2022/05/28 03:10:50;;;;;;;5.03;1.13;;;;;;;9.90;62.21;99188.78;5154955;27;42526;-78
2022/05/28 03:13:18;;;;;;;2.00;1.00;;;;;;;9.89;61.97;99187.13;5136154;27;42207;-78
2022/05/28 03:15:45;;;;;;;2.37;1.13;;;;;;;9.89;62.05;99202.97;5153617;27;39054;-75
2022/05/28 03:18:13;;;;;;;3.87;0.97;;;;;;;9.87;62.36;99183.69;5153413;27;41858;-76
2022/05/28 03:20:41;;;;;;;4.70;1.10;;;;;;;9.87;62.44;99196.91;5154245;27;43386;-73
2022/05/28 03:23:10;;;;;;;2.60;1.17;;;;;;;9.88;62.25;99190.69;5152097;27;42020;-77
2022/05/28 03:25:38;;;;;;;4.80;1.20;;;;;;;9.88;62.15;99196.84;5155220;27;39861;-73
2022/05/28 03:28:05;;;;;;;3.43;1.27;;;;;;;9.89;62.46;99193.22;5154332;27;41562;-75
2022/05/28 03:30:33;;;;;;;5.27;1.50;;;;;;;9.92;62.24;99195.72;5153241;27;43208;-74
2022/05/28 03:33:01;;;;;;;2.00;1.20;;;;;;;9.92;62.38;99198.34;5153014;27;42300;-74
2022/05/28 03:35:29;;;;;;;2.47;0.60;;;;;;;9.95;62.21;99202.63;5154426;27;40033;-75
2022/05/28 03:37:57;;;;;;;3.10;1.00;;;;;;;9.96;62.62;99199.06;5152960;27;41231;-74
2022/05/28 03:40:26;;;;;;;5.30;1.10;;;;;;;9.99;62.49;99207.69;5153047;27;42693;-76
2022/05/28 03:42:53;;;;;;;2.80;0.87;;;;;;;10.02;61.89;99209.28;5154171;27;42358;-77
2022/05/28 03:45:21;;;;;;;1.70;0.83;;;;;;;10.05;62.07;99214.41;5153184;27;40697;-74
2022/05/28 03:47:49;;;;;;;1.13;1.00;;;;;;;10.08;62.01;99219.56;5152825;27;40555;-76
2022/05/28 03:50:16;;;;;;;2.97;1.30;;;;;;;10.14;62.07;99216.56;5153176;27;43069;-73
2022/05/28 03:52:44;;;;;;;2.70;1.00;;;;;;;10.19;61.79;99211.06;5154008;27;42181;-76
2022/05/28 03:55:13;;;;;;;3.60;1.20;;;;;;;10.24;61.37;99220.47;5153430;27;39981;-73
2022/05/28 03:57:42;;;;;;;2.90;0.60;;;;;;;10.29;61.57;99223.69;5153862;27;41737;-76
2022/05/28 04:00:11;;;;;;;3.80;0.90;;;;;;;10.35;61.66;99225.16;5152858;27;42577;-75
2022/05/28 04:02:38;;;;;;;3.00;0.93;;;;;;;10.39;61.48;99224.88;5135202;27;41080;-76
2022/05/28 04:05:06;;;;;;;2.13;0.93;;;;;;;10.48;61.26;99227.97;5135865;27;39174;-76
2022/05/28 04:07:34;;;;;;;1.33;0.70;;;;;;;10.54;61.35;99225.81;5152537;27;41520;-75
2022/05/28 04:10:02;;;;;;;2.90;0.83;;;;;;;10.64;61.27;99226.16;5152522;27;42905;-74
2022/05/28 04:12:30;;;;;;;4.67;1.00;;;;;;;10.70;61.38;99217.88;5151912;27;42293;-78
2022/05/28 04:14:59;;;;;;;3.70;1.00;;;;;;;10.83;61.02;99218.88;5152866;27;39911;-76
2022/05/28 04:17:29;;;;;;;4.30;1.87;;;;;;;10.94;61.23;99227.03;5152311;27;41797;-74
2022/05/28 04:19:56;;;;;;;1.63;0.80;;;;;;;11.03;61.03;99237.09;5153847;27;42798;-77
2022/05/28 04:22:25;;;;;;;2.13;0.70;;;;;;;11.08;60.74;99224.44;5135151;27;41111;-79
2022/05/28 04:24:53;;;;;;;2.47;0.90;;;;;;;11.20;60.48;99232.63;5153942;27;40129;-76
2022/05/28 04:27:21;;;;;;;1.87;0.83;;;;;;;11.24;60.25;99231.50;5152370;27;41761;-76
2022/05/28 04:29:48;;;;;;;2.13;1.00;;;;;;;11.33;60.29;99246.88;5152517;27;42641;-75
2022/05/28 04:32:18;;;;;;;3.17;0.90;;;;;;;11.41;60.02;99241.94;5152040;27;42120;-78
2022/05/28 04:34:46;;;;;;;2.40;0.90;;;;;;;11.46;59.71;99240.75;5155029;27;38414;-78
2022/05/28 04:37:13;;;;;;;3.70;1.07;;;;;;;11.56;59.49;99238.38;5156931;27;41808;-79
2022/05/28 04:39:41;;;;;;;1.40;1.30;;;;;;;11.65;59.39;99251.09;5157257;27;42528;-79
2022/05/28 04:42:09;;;;;;;2.13;0.90;;;;;;;11.71;59.35;99255.19;5155585;27;41969;-78
2022/05/28 04:44:37;;;;;;;2.90;1.33;;;;;;;11.39;59.25;99193.44;5156005;27;39856;-77
2022/05/28 04:47:05;;;;;;;2.17;1.30;;;;;;;11.83;58.90;99255.31;5155702;27;41891;-74
2022/05/28 04:49:34;;;;;;;3.60;1.27;;;;;;;11.90;58.72;99261.09;5155831;27;42750;-78
2022/05/28 04:52:02;;;;;;;2.47;1.00;;;;;;;11.95;58.88;99266.13;5138299;27;41015;-76
2022/05/28 04:54:29;;;;;;;3.20;0.87;;;;;;;11.96;58.90;99262.53;5155986;27;38826;-76
2022/05/28 04:56:57;;;;;;;3.33;0.90;;;;;;;12.02;58.46;99254.16;5155210;27;40891;-75
2022/05/28 04:59:25;;;;;;;4.70;0.90;;;;;;;12.12;58.35;99256.16;5155511;27;41762;-76
2022/05/28 05:01:53;;;;;;;2.93;0.90;;;;;;;12.26;58.07;99257.94;5138039;27;42340;-75
2022/05/28 05:04:20;;;;;;;2.00;1.40;;;;;;;12.36;57.77;99263.56;5154863;27;39965;-76
2022/05/28 05:06:50;;;;;;;4.30;1.40;;;;;;;12.43;58.19;99265.72;5155497;27;41756;-78
2022/05/28 05:09:17;;;;;;;2.93;1.03;;;;;;;12.49;57.90;99260.00;5155371;27;43057;-77
2022/05/28 05:11:45;;;;;;;5.23;1.17;;;;;;;12.62;57.45;99264.50;5154505;27;42261;-74
2022/05/28 05:14:13;;;;;;;1.37;0.90;;;;;;;12.73;57.36;99267.38;5138674;27;38871;-77
2022/05/28 05:16:41;;;;;;;4.63;1.10;;;;;;;12.81;57.21;99273.03;5154921;27;41675;-78
2022/05/28 05:19:08;;;;;;;1.97;1.00;;;;;;;12.84;56.67;99275.50;5156632;27;43819;-74
2022/05/28 05:21:36;;;;;;;4.93;0.90;;;;;;;12.89;56.34;99281.34;5152911;27;41092;-74
2022/05/28 05:24:06;;;;;;;1.93;1.00;;;;;;;12.97;56.13;99280.84;5159620;27;39884;-75
2022/05/28 05:26:34;;;;;;;2.83;0.80;;;;;;;13.08;55.99;99273.03;5168857;27;42287;-77
2022/05/28 05:29:01;;;;;;;2.40;0.80;;;;;;;13.17;55.83;99273.28;5167742;27;42320;-74
2022/05/28 05:31:29;;;;;;;3.23;0.90;;;;;;;13.24;54.85;99282.56;5158781;27;42293;-76
2022/05/28 05:33:57;;;;;;;2.93;1.17;;;;;;;13.31;54.52;99280.34;5172328;27;39892;-77
2022/05/28 05:36:24;;;;;;;3.57;1.13;;;;;;;13.38;54.75;99280.78;5153766;27;42066;-76
2022/05/28 05:38:52;;;;;;;1.80;1.70;;;;;;;13.46;55.10;99282.00;5165270;27;42967;-76
2022/05/28 05:41:21;;;;;;;3.33;0.93;;;;;;;13.57;54.89;99291.91;5161328;27;43091;-76
2022/05/28 05:43:48;;;;;;;2.23;1.07;;;;;;;13.63;54.94;99286.16;5154778;27;38519;-75
2022/05/28 05:46:16;;;;;;;2.53;1.00;;;;;;;13.74;54.61;99290.75;5169845;27;42336;-74
2022/05/28 05:48:44;;;;;;;2.37;0.83;;;;;;;13.79;54.16;99281.50;5153801;27;43544;-73
2022/05/28 05:51:15;;;;;;;2.17;0.90;;;;;;;13.92;53.98;99286.84;5149922;27;42057;-74
2022/05/28 05:53:44;;;;;;;3.63;1.23;;;;;;;14.02;54.02;99290.56;5158830;27;40594;-77
2022/05/28 05:56:11;;;;;;;5.63;1.70;;;;;;;14.10;53.96;99279.34;5170622;27;41961;-74
2022/05/28 05:58:40;;;;;;;0.93;0.70;;;;;;;14.18;53.71;99295.66;5163777;27;43485;-74
2022/05/28 06:01:08;;;;;;;2.17;0.90;;;;;;;14.22;53.09;99278.47;5162260;27;40828;-79
2022/05/28 06:03:38;;;;;;;3.10;0.90;;;;;;;14.25;52.75;99279.13;5171731;27;40000;-76
2022/05/28 06:06:07;;;;;;;3.13;0.90;;;;;;;14.40;52.80;99287.88;5142174;27;41245;-74
2022/05/28 06:08:34;;;;;;;1.90;0.90;;;;;;;14.49;52.47;99281.03;5166942;27;42090;-76
2022/05/28 06:11:02;;;;;;;2.27;1.10;;;;;;;14.57;52.72;99290.22;5148343;27;41370;-75
2022/05/28 06:13:29;;;;;;;4.30;1.10;;;;;;;14.70;52.37;99291.03;5175382;27;39794;-77
2022/05/28 06:15:58;;;;;;;3.03;1.00;;;;;;;14.81;52.94;99282.25;5156718;27;40328;-78
2022/05/28 06:18:26;;;;;;;2.70;1.10;;;;;;;14.91;52.33;99285.09;5167220;27;43331;-76
2022/05/28 06:20:54;;;;;;;3.47;1.37;;;;;;;15.03;52.07;99292.19;5165639;27;42291;-78
2022/05/28 06:23:22;;;;;;;2.13;1.00;;;;;;;15.11;51.10;99295.13;5160647;27;40081;-77
2022/05/28 06:25:50;;;;;;;3.23;1.10;;;;;;;15.17;51.37;99294.69;5172086;27;42511;-75
2022/05/28 06:28:17;;;;;;;4.40;1.47;;;;;;;15.27;51.21;99287.69;5153405;27;41798;-77
2022/05/28 06:30:46;;;;;;;2.23;0.90;;;;;;;15.40;51.51;99285.81;5164161;27;41979;-78
2022/05/28 06:33:15;;;;;;;2.23;1.17;;;;;;;15.49;51.07;99284.25;5161798;27;40098;-76
2022/05/28 06:35:43;;;;;;;4.40;1.20;;;;;;;15.58;51.00;99285.44;5172077;27;41862;-78
2022/05/28 06:38:11;;;;;;;5.00;1.10;;;;;;;15.67;50.10;99292.72;5153014;27;42788;-74
2022/05/28 06:40:39;;;;;;;2.47;0.80;;;;;;;15.74;50.33;99291.28;5161910;27;42154;-75
2022/05/28 06:43:06;;;;;;;2.40;1.00;;;;;;;15.78;50.44;99282.91;5162751;27;39950;-75
2022/05/28 06:45:34;;;;;;;2.87;1.07;;;;;;;15.85;50.36;99288.63;5153032;27;42696;-75
2022/05/28 06:48:01;;;;;;;6.27;1.37;;;;;;;15.88;49.11;99280.38;5171423;27;42615;-79
2022/05/28 06:53:15;;;;;;;3.60;1.00;;;;;;;16.27;48.83;99286.25;5149157;27;39715;-79
2022/05/28 06:55:43;;;;;;;1.80;0.80;;;;;;;16.27;48.22;99260.38;5157396;27;42664;-75
2022/05/28 06:58:11;;;;;;;2.77;0.87;;;;;;;16.64;48.81;99290.41;5151200;27;43278;-76
2022/05/28 07:00:39;;;;;;;1.83;1.10;;;;;;;16.73;48.90;99273.59;5161581;27;42898;-76
2022/05/28 07:03:12;;;;;;;2.83;0.90;;;;;;;17.02;47.74;99295.31;5162559;27;40876;-76
2022/05/28 07:05:42;;;;;;;1.93;0.90;;;;;;;17.16;47.03;99296.88;5168385;27;43000;-74
2022/05/28 07:08:10;;;;;;;5.50;1.17;;;;;;;17.32;47.41;99297.28;5141698;27;43863;-78
2022/05/28 07:10:46;;;;;;;2.60;1.10;;;;;;;17.45;47.15;99300.63;5148456;27;42803;-76
2022/05/28 07:13:15;;;;;;;3.00;1.50;;;;;;;17.63;46.97;99300.06;5167258;27;39804;-76
2022/05/28 07:15:43;;;;;;;5.30;0.70;;;;;;;17.80;46.34;99300.34;5157448;27;43047;-75
2022/05/28 07:18:11;;;;;;;2.10;1.10;;;;;;;17.88;45.97;99305.06;5170344;27;42713;-78
2022/05/28 07:20:39;;;;;;;1.87;1.20;;;;;;;18.25;45.54;99298.25;5162682;27;42205;-74
2022/05/28 07:23:10;;;;;;;2.27;0.97;;;;;;;18.49;44.93;99302.44;5160491;27;40151;-74
2022/05/28 07:25:38;;;;;;;3.80;1.00;;;;;;;18.92;44.15;99297.66;5167831;27;41659;-79
2022/05/28 07:30:47;;;;;;;1.80;0.93;;;;;;;20.14;43.06;99312.41;5152110;27;43091;-79
2022/05/28 07:33:15;;;;;;;1.90;0.90;;;;;;;20.24;41.98;99314.09;5166368;27;39496;-75
2022/05/28 07:35:45;;;;;;;3.40;1.17;;;;;;;20.17;42.03;99318.31;5156243;27;41422;-81
2022/05/28 07:38:15;;;;;;;2.27;0.73;;;;;;;19.88;41.08;99322.94;5169831;27;43119;-78
2022/05/28 07:40:43;;;;;;;1.93;0.87;;;;;;;19.76;41.59;99324.06;5135164;27;41668;-79
2022/05/28 07:43:11;;;;;;;1.83;0.80;;;;;;;19.99;41.42;99317.38;5166705;27;40868;-79
2022/05/28 07:45:41;;;;;;;2.87;0.80;;;;;;;22.25;39.40;99331.81;5155927;27;40628;-76
2022/05/28 07:48:09;;;;;;;3.17;1.00;;;;;;;23.01;36.67;99342.69;5138942;27;43085;-79
2022/05/28 07:50:37;;;;;;;1.97;0.80;;;;;;;22.96;37.21;99336.09;5166536;27;43272;-76
2022/05/28 07:53:05;;;;;;;3.93;1.00;;;;;;;22.81;37.37;99344.81;5152426;27;39125;-77
2022/05/28 07:55:35;;;;;;;4.17;1.00;;;;;;;22.39;37.62;99339.31;5168453;27;42623;-79
2022/05/28 07:58:10;;;;;;;3.30;0.80;;;;;;;21.82;36.18;99341.56;5170491;27;41696;-76
2022/05/28 08:00:39;;;;;;;2.30;1.07;;;;;;;21.25;37.43;99325.84;5161714;27;42870;-77
2022/05/28 08:03:08;;;;;;;2.20;0.67;;;;;;;20.98;38.80;99330.22;5173525;27;40989;-75
2022/05/28 08:05:36;;;;;;;2.50;0.80;;;;;;;20.68;38.60;99317.06;5148426;27;40902;-74
2022/05/28 08:08:04;;;;;;;3.07;0.87;;;;;;;21.02;38.70;99326.22;5160178;27;44559;-74
2022/05/28 08:10:32;;;;;;;2.53;1.03;;;;;;;21.35;38.89;99327.47;5170604;27;42061;-76
2022/05/28 08:13:07;;;;;;;2.50;0.90;;;;;;;21.23;38.44;99331.38;5164554;27;39843;-77
2022/05/28 08:15:36;;;;;;;2.43;1.00;;;;;;;21.13;38.72;99326.03;5149892;27;41964;-77
2022/05/28 08:18:04;;;;;;;1.50;0.70;;;;;;;21.08;39.40;99328.31;5137719;27;44024;-75
2022/05/28 08:23:18;;;;;;;3.03;1.10;;;;;;;20.76;38.20;99331.47;5166761;27;40872;-76
2022/05/28 08:25:47;;;;;;;2.20;0.90;;;;;;;20.76;38.79;99323.41;5155094;27;42810;-77
2022/05/28 08:28:18;;;;;;;1.17;0.63;;;;;;;20.93;38.39;99324.44;5167405;27;42497;-74
2022/05/28 08:30:46;;;;;;;1.33;0.80;;;;;;;20.94;38.34;99328.81;5158167;27;43102;-78
2022/05/28 08:33:16;;;;;;;0.80;0.50;;;;;;;22.15;36.78;99331.91;5159149;27;38828;-77
2022/05/28 08:35:45;;;;;;;2.10;0.77;;;;;;;23.99;33.72;99358.13;5170037;27;41752;-76
2022/05/28 08:38:16;;;;;;;3.83;0.90;;;;;;;25.73;31.24;99344.53;5134400;27;42029;-77
2022/05/28 08:40:48;;;;;;;2.50;0.80;;;;;;;26.76;29.87;99369.25;5161153;27;42217;-76
2022/05/28 08:43:18;;;;;;;1.37;0.70;;;;;;;26.80;29.76;99381.44;5159966;27;40885;-76
2022/05/28 08:45:49;;;;;;;1.87;0.63;;;;;;;26.50;30.48;99379.72;5152224;27;41628;-77
2022/05/28 08:48:21;;;;;;;2.87;0.80;;;;;;;26.26;29.15;99388.91;5166608;27;42768;-78
2022/05/28 08:50:53;;;;;;;1.83;1.10;;;;;;;25.57;30.60;99377.19;5144258;27;41115;-76
2022/05/28 08:53:24;;;;;;;1.10;0.57;;;;;;;25.59;30.27;99379.72;5140300;27;38463;-78
2022/05/28 08:55:53;;;;;;;1.80;0.73;;;;;;;25.27;29.69;99394.28;5166935;27;42536;-77
2022/05/28 08:58:26;;;;;;;1.87;1.00;;;;;;;24.63;31.11;99369.94;5139609;27;41535;-74
2022/05/28 09:00:58;;;;;;;3.87;1.00;;;;;;;23.93;31.87;99374.19;5159971;27;42328;-78
2022/05/28 09:03:29;;;;;;;3.07;0.80;;;;;;;23.58;32.93;99361.81;5151295;27;38881;-82
2022/05/28 09:06:03;;;;;;;2.10;0.70;;;;;;;23.26;32.68;99376.03;5168532;27;40570;-80
2022/05/28 09:08:35;;;;;;;2.70;1.20;;;;;;;23.65;32.67;99368.25;5151451;27;42761;-76
2022/05/28 09:11:07;;;;;;;3.57;0.97;;;;;;;24.31;33.08;99338.34;5160039;27;43313;-77
2022/05/28 09:13:42;;;;;;;1.07;0.70;;;;;;;25.70;31.67;99366.63;5156519;27;39900;-77
2022/05/28 09:16:18;;;;;;;2.40;1.00;;;;;;;26.18;29.17;99385.44;5132491;27;41857;-80
2022/05/28 09:18:48;;;;;;;2.90;1.00;;;;;;;26.42;29.74;99377.09;5159978;27;42581;-79
2022/05/28 09:21:17;;;;;;;1.73;0.80;;;;;;;26.86;29.94;99368.13;5158983;27;44939;-78
2022/05/28 09:23:48;;;;;;;2.30;0.90;;;;;;;26.57;28.89;99379.84;5144267;27;38873;-74
2022/05/28 09:26:25;;;;;;;2.40;0.80;;;;;;;26.31;29.09;99372.09;5162745;27;41043;-77
2022/05/28 09:29:09;;;;;;;2.23;0.90;;;;;;;26.78;28.10;99378.06;5160830;27;43196;-74
2022/05/28 09:31:52;;;;;;;1.97;0.87;;;;;;;26.58;29.09;99357.88;5146094;27;41097;-77
2022/05/28 09:34:36;;;;;;;1.53;0.80;;;;;;;25.96;29.89;99360.00;5162747;27;39030;-79
2022/05/28 09:37:15;;;;;;;2.87;1.20;;;;;;;25.79;30.62;99347.56;5162647;27;40649;-76
2022/05/28 09:39:53;;;;;;;2.60;1.00;;;;;;;25.81;30.46;99345.53;5163023;27;42710;-78
2022/05/28 09:42:29;;;;;;;2.10;0.83;;;;;;;27.66;27.62;99365.44;5160985;27;42590;-79
2022/05/28 09:45:09;;;;;;;0.83;0.60;;;;;;;28.84;26.49;99358.31;5160833;27;39220;-78
2022/05/28 09:47:48;;;;;;;1.80;0.90;;;;;;;28.28;27.37;99349.31;5160735;27;42534;-78
2022/05/28 09:50:26;;;;;;;3.07;1.10;;;;;;;27.15;27.52;99363.56;5162892;27;42926;-79
2022/05/28 09:55:56;;;;;;;2.60;0.87;;;;;;;24.93;29.00;99343.13;5159997;27;39974;-76
2022/05/28 09:58:27;;;;;;;3.57;0.80;;;;;;;24.12;31.39;99340.53;5161553;27;41010;-79
2022/05/28 10:01:07;;;;;;;3.67;1.40;;;;;;;23.52;32.20;99338.97;5161529;27;43856;-79
2022/05/28 10:06:24;;;;;;;3.43;1.10;;;;;;;22.88;33.53;99323.38;5161009;27;38928;-77
2022/05/28 10:08:51;;;;;;;1.70;1.00;;;;;;;23.77;32.12;99315.50;5161997;27;42052;-76
2022/05/28 10:11:22;;;;;;;5.70;1.00;;;;;;;24.75;31.56;99310.78;5161333;27;43780;-78
2022/05/28 10:13:52;;;;;;;2.40;1.07;;;;;;;25.85;31.12;99314.25;5162068;27;42227;-76
2022/05/28 10:16:25;;;;;;;1.47;0.60;;;;;;;26.15;29.26;99326.91;5161861;27;38807;-83
2022/05/28 10:18:56;;;;;;;0.60;0.60;;;;;;;25.89;30.20;99313.72;5158914;27;41583;-79
2022/05/28 10:21:31;;;;;;;3.17;1.10;;;;;;;26.74;30.57;99311.53;5157802;27;43438;-81
2022/05/28 10:24:01;;;;;;;1.53;0.80;;;;;;;27.91;28.35;99317.75;5158880;27;41995;-78
2022/05/28 10:26:32;;;;;;;2.93;1.00;;;;;;;28.53;27.46;99325.16;5160352;27;40599;-78
2022/05/28 10:29:04;;;;;;;1.43;0.60;;;;;;;27.74;26.95;99335.38;5140451;27;40227;-76
2022/05/28 10:31:38;;;;;;;2.27;0.90;;;;;;;27.91;26.61;99325.06;5137507;27;43415;-80
2022/05/28 10:34:06;;;;;;;1.10;0.87;;;;;;;27.80;27.49;99318.28;5156773;27;42213;-77
2022/05/28 10:36:36;;;;;;;1.50;0.70;;;;;;;27.78;27.99;99304.00;5162113;27;38984;-75
2022/05/28 10:39:06;;;;;;;2.60;1.10;;;;;;;28.17;27.68;99319.84;5165184;27;41769;-79
2022/05/28 10:41:36;;;;;;;1.90;0.83;;;;;;;28.40;27.21;99303.28;5156653;27;42401;-81
2022/05/28 10:44:05;;;;;;;1.90;0.90;;;;;;;28.78;26.54;99315.50;5158600;27;43257;-78
2022/05/28 10:46:46;;;;;;;3.30;0.70;;;;;;;28.73;25.46;99312.50;5158619;27;39771;-79
2022/05/28 10:49:26;;;;;;;2.47;0.80;;;;;;;28.58;26.85;99307.16;5145424;27;41612;-79
2022/05/28 10:52:01;;;;;;;1.50;0.97;;;;;;;28.75;26.43;99313.13;5161909;27;43368;-79
2022/05/28 10:54:48;;;;;;;1.20;0.80;;;;;;;28.38;26.22;99316.25;5143751;27;42191;-75
2022/05/28 10:57:44;;;;;;;3.10;1.47;;;;;;;28.38;27.47;99302.63;5160221;27;40341;-82
2022/05/28 11:00:15;;;;;;;1.10;0.80;;;;;;;28.87;29.61;99295.19;5159981;27;40934;-80
2022/05/28 11:03:22;;;;;;;2.97;1.00;;;;;;;29.21;26.92;99297.00;5161499;27;41873;-75
2022/05/28 11:06:06;;;;;;;2.20;1.00;;;;;;;28.57;26.85;99297.28;5143211;27;41459;-78
2022/05/28 11:08:42;;;;;;;1.53;0.90;;;;;;;27.72;27.22;99299.31;5159629;27;39924;-79
2022/05/28 11:11:23;;;;;;;0.97;0.70;;;;;;;27.65;28.15;99271.22;5155301;27;41953;-77
2022/05/28 11:14:04;;;;;;;1.00;0.80;;;;;;;27.73;28.98;99284.69;5160851;27;42943;-79
2022/05/28 11:16:47;;;;;;;2.23;1.23;;;;;;;27.82;28.60;99272.63;5158311;27;43259;-80
2022/05/28 11:19:33;;;;;;;2.67;0.97;;;;;;;27.69;28.52;99261.63;5159904;27;40370;-74
2022/05/28 11:22:18;;;;;;;1.70;0.80;;;;;;;27.46;27.72;99278.94;5162171;27;41721;-81
2022/05/28 11:24:54;;;;;;;0.80;0.60;;;;;;;27.25;26.61;99269.94;5157162;27;42726;-77
2022/05/28 11:27:42;;;;;;;1.00;0.73;;;;;;;27.30;27.18;99281.94;5161412;27;43208;-75
2022/05/28 11:30:15;;;;;;;4.80;0.90;;;;;;;27.38;26.57;99278.25;5158881;27;40265;-81
2022/05/28 11:32:49;;;;;;;1.77;1.43;;;;;;;27.60;26.37;99274.50;5157304;27;42233;-82
2022/05/28 11:35:27;;;;;;;1.13;0.70;;;;;;;27.94;25.70;99281.13;5145533;27;43216;-78
2022/05/28 11:38:02;;;;;;;2.40;0.80;;;;;;;28.53;25.37;99259.75;5162104;27;42170;-80
2022/05/28 11:40:36;;;;;;;1.00;0.77;;;;;;;29.54;23.90;99275.31;5172337;27;40846;-76
2022/05/28 11:43:11;;;;;;;1.07;0.60;;;;;;;29.39;24.20;99261.00;5174447;27;42313;-81
2022/05/28 11:45:45;;;;;;;1.27;0.73;;;;;;;29.65;24.25;99276.56;5156709;27;42799;-77
2022/05/28 11:48:21;;;;;;;1.23;0.70;;;;;;;29.28;24.19;99272.47;5173800;27;43172;-81
2022/05/28 11:53:44;;;;;;;1.83;0.80;;;;;;;32.28;23.28;99263.78;5171032;27;41810;-80
2022/05/28 11:56:16;;;;;;;0.80;0.73;;;;;;;33.83;21.01;99284.25;5170788;27;42455;-80
2022/05/28 11:58:48;;;;;;;1.53;0.83;;;;;;;34.32;20.58;99271.19;5156654;27;42378;-81
2022/05/28 12:01:20;;;;;;;1.13;1.03;;;;;;;34.88;17.75;99291.72;5171586;27;39997;-75
2022/05/28 12:03:49;;;;;;;1.27;0.70;;;;;;;35.77;17.80;99295.72;5171824;27;41897;-80
2022/05/28 12:06:26;;;;;;;0.90;0.70;;;;;;;36.57;17.45;99298.16;5156042;27;43124;-78